sensor_id;sensor_type;location;lat;lon;timestamp;P1;durP1;ratioP1;P2;durP2;ratioP2
45254;SDS011;30989;52.078;21.014;2023-04-30T00:02:11;18.13;;;9.60;;
45254;SDS011;30989;52.078;21.014;2023-04-30T00:04:36;20.23;;;8.57;;
45254;SDS011;30989;52.078;21.014;2023-04-30T00:07:02;17.27;;;8.95;;
45254;SDS011;30989;52.078;21.014;2023-04-30T00:09:28;19.67;;;10.02;;
45254;SDS011;30989;52.078;21.014;2023-04-30T00:11:53;22.48;;;10.13;;
45254;SDS011;30989;52.078;21.014;2023-04-30T00:14:19;22.52;;;10.07;;
45254;SDS011;30989;52.078;21.014;2023-04-30T00:16:45;18.98;;;9.85;;
45254;SDS011;30989;52.078;21.014;2023-04-30T00:19:10;18.23;;;9.20;;
45254;SDS011;30989;52.078;21.014;2023-04-30T00:21:35;16.30;;;9.52;;
45254;SDS011;30989;52.078;21.014;2023-04-30T00:24:01;20.65;;;9.00;;
45254;SDS011;30989;52.078;21.014;2023-04-30T00:26:26;23.13;;;9.88;;
45254;SDS011;30989;52.078;21.014;2023-04-30T00:28:53;19.33;;;9.70;;
45254;SDS011;30989;52.078;21.014;2023-04-30T00:31:18;18.05;;;10.30;;
45254;SDS011;30989;52.078;21.014;2023-04-30T00:33:43;20.17;;;9.85;;
45254;SDS011;30989;52.078;21.014;2023-04-30T00:36:09;23.63;;;9.63;;
45254;SDS011;30989;52.078;21.014;2023-04-30T00:38:35;18.63;;;9.98;;
45254;SDS011;30989;52.078;21.014;2023-04-30T00:41:00;22.05;;;10.48;;
45254;SDS011;30989;52.078;21.014;2023-04-30T00:43:26;19.13;;;9.88;;
45254;SDS011;30989;52.078;21.014;2023-04-30T00:45:51;20.52;;;10.20;;
45254;SDS011;30989;52.078;21.014;2023-04-30T00:48:17;23.42;;;10.30;;
45254;SDS011;30989;52.078;21.014;2023-04-30T00:50:43;21.83;;;11.23;;
45254;SDS011;30989;52.078;21.014;2023-04-30T00:53:10;20.65;;;10.85;;
45254;SDS011;30989;52.078;21.014;2023-04-30T00:55:36;20.92;;;10.73;;
45254;SDS011;30989;52.078;21.014;2023-04-30T00:58:03;20.27;;;10.40;;
45254;SDS011;30989;52.078;21.014;2023-04-30T01:00:29;22.88;;;10.88;;
45254;SDS011;30989;52.078;21.014;2023-04-30T01:02:55;24.45;;;10.55;;
45254;SDS011;30989;52.078;21.014;2023-04-30T01:05:21;21.90;;;9.35;;
45254;SDS011;30989;52.078;21.014;2023-04-30T01:07:47;24.75;;;11.45;;
45254;SDS011;30989;52.078;21.014;2023-04-30T01:10:13;19.70;;;10.23;;
45254;SDS011;30989;52.078;21.014;2023-04-30T01:12:49;17.30;;;9.48;;
45254;SDS011;30989;52.078;21.014;2023-04-30T01:15:33;15.95;;;9.57;;
45254;SDS011;30989;52.078;21.014;2023-04-30T01:18:17;13.50;;;8.00;;
45254;SDS011;30989;52.078;21.014;2023-04-30T01:21:00;19.77;;;10.30;;
45254;SDS011;30989;52.078;21.014;2023-04-30T01:28:43;18.23;;;9.57;;
45254;SDS011;30989;52.078;21.014;2023-04-30T01:31:11;20.25;;;10.60;;
45254;SDS011;30989;52.078;21.014;2023-04-30T01:33:42;14.25;;;8.27;;
45254;SDS011;30989;52.078;21.014;2023-04-30T01:49:57;19.95;;;10.18;;
45254;SDS011;30989;52.078;21.014;2023-04-30T01:55:19;20.35;;;10.52;;
45254;SDS011;30989;52.078;21.014;2023-04-30T01:58:08;15.80;;;9.77;;
45254;SDS011;30989;52.078;21.014;2023-04-30T02:00:36;17.27;;;9.90;;
45254;SDS011;30989;52.078;21.014;2023-04-30T02:03:02;15.88;;;9.55;;
45254;SDS011;30989;52.078;21.014;2023-04-30T02:05:28;16.27;;;9.70;;
45254;SDS011;30989;52.078;21.014;2023-04-30T02:07:54;22.02;;;10.48;;
45254;SDS011;30989;52.078;21.014;2023-04-30T02:10:21;18.67;;;10.00;;
45254;SDS011;30989;52.078;21.014;2023-04-30T02:12:48;19.45;;;10.18;;
45254;SDS011;30989;52.078;21.014;2023-04-30T02:15:14;18.38;;;10.93;;
45254;SDS011;30989;52.078;21.014;2023-04-30T02:17:39;17.65;;;10.38;;
45254;SDS011;30989;52.078;21.014;2023-04-30T02:20:06;19.13;;;10.70;;
45254;SDS011;30989;52.078;21.014;2023-04-30T02:22:32;16.55;;;10.95;;
45254;SDS011;30989;52.078;21.014;2023-04-30T02:24:58;18.38;;;10.55;;
45254;SDS011;30989;52.078;21.014;2023-04-30T02:27:23;17.48;;;10.32;;
45254;SDS011;30989;52.078;21.014;2023-04-30T02:29:50;19.20;;;10.88;;
45254;SDS011;30989;52.078;21.014;2023-04-30T02:32:16;16.65;;;9.50;;
45254;SDS011;30989;52.078;21.014;2023-04-30T02:34:42;17.30;;;10.80;;
45254;SDS011;30989;52.078;21.014;2023-04-30T02:37:07;19.60;;;12.38;;
45254;SDS011;30989;52.078;21.014;2023-04-30T02:39:33;21.35;;;11.73;;
45254;SDS011;30989;52.078;21.014;2023-04-30T02:41:59;17.85;;;10.45;;
45254;SDS011;30989;52.078;21.014;2023-04-30T02:44:24;19.05;;;11.48;;
45254;SDS011;30989;52.078;21.014;2023-04-30T02:46:50;18.00;;;10.18;;
45254;SDS011;30989;52.078;21.014;2023-04-30T02:49:16;23.27;;;11.55;;
45254;SDS011;30989;52.078;21.014;2023-04-30T02:51:41;20.65;;;12.77;;
45254;SDS011;30989;52.078;21.014;2023-04-30T02:54:07;23.38;;;13.82;;
45254;SDS011;30989;52.078;21.014;2023-04-30T02:56:32;20.27;;;12.65;;
45254;SDS011;30989;52.078;21.014;2023-04-30T02:58:58;23.35;;;13.85;;
45254;SDS011;30989;52.078;21.014;2023-04-30T03:01:24;23.83;;;13.40;;
45254;SDS011;30989;52.078;21.014;2023-04-30T03:03:50;22.98;;;13.00;;
45254;SDS011;30989;52.078;21.014;2023-04-30T03:06:15;21.50;;;12.48;;
45254;SDS011;30989;52.078;21.014;2023-04-30T03:08:41;22.05;;;12.95;;
45254;SDS011;30989;52.078;21.014;2023-04-30T03:11:06;16.50;;;10.63;;
45254;SDS011;30989;52.078;21.014;2023-04-30T03:13:32;15.80;;;10.43;;
45254;SDS011;30989;52.078;21.014;2023-04-30T03:15:57;16.42;;;10.60;;
45254;SDS011;30989;52.078;21.014;2023-04-30T03:18:24;31.45;;;11.25;;
45254;SDS011;30989;52.078;21.014;2023-04-30T03:20:50;15.80;;;10.32;;
45254;SDS011;30989;52.078;21.014;2023-04-30T03:23:15;16.15;;;9.43;;
45254;SDS011;30989;52.078;21.014;2023-04-30T03:25:41;16.00;;;9.55;;
45254;SDS011;30989;52.078;21.014;2023-04-30T03:28:06;15.43;;;9.43;;
45254;SDS011;30989;52.078;21.014;2023-04-30T03:30:32;16.05;;;9.32;;
45254;SDS011;30989;52.078;21.014;2023-04-30T03:32:57;16.42;;;9.88;;
45254;SDS011;30989;52.078;21.014;2023-04-30T03:35:22;19.90;;;9.85;;
45254;SDS011;30989;52.078;21.014;2023-04-30T03:37:48;16.67;;;9.93;;
45254;SDS011;30989;52.078;21.014;2023-04-30T03:40:13;16.35;;;9.50;;
45254;SDS011;30989;52.078;21.014;2023-04-30T03:42:40;18.67;;;11.10;;
45254;SDS011;30989;52.078;21.014;2023-04-30T03:45:05;19.50;;;11.48;;
45254;SDS011;30989;52.078;21.014;2023-04-30T03:47:32;16.23;;;9.43;;
45254;SDS011;30989;52.078;21.014;2023-04-30T03:49:57;18.75;;;9.98;;
45254;SDS011;30989;52.078;21.014;2023-04-30T03:52:23;18.67;;;11.40;;
45254;SDS011;30989;52.078;21.014;2023-04-30T03:54:49;18.40;;;10.27;;
45254;SDS011;30989;52.078;21.014;2023-04-30T03:57:14;18.55;;;10.80;;
45254;SDS011;30989;52.078;21.014;2023-04-30T03:59:40;18.58;;;10.30;;
45254;SDS011;30989;52.078;21.014;2023-04-30T04:02:06;14.20;;;9.25;;
45254;SDS011;30989;52.078;21.014;2023-04-30T04:04:32;15.38;;;9.48;;
45254;SDS011;30989;52.078;21.014;2023-04-30T04:06:58;14.75;;;8.60;;
45254;SDS011;30989;52.078;21.014;2023-04-30T04:09:23;16.13;;;8.98;;
45254;SDS011;30989;52.078;21.014;2023-04-30T04:11:49;20.20;;;9.93;;
45254;SDS011;30989;52.078;21.014;2023-04-30T04:14:14;14.23;;;9.45;;
45254;SDS011;30989;52.078;21.014;2023-04-30T04:16:41;17.65;;;9.35;;
45254;SDS011;30989;52.078;21.014;2023-04-30T04:19:06;16.33;;;9.85;;
45254;SDS011;30989;52.078;21.014;2023-04-30T04:21:33;18.05;;;10.45;;
45254;SDS011;30989;52.078;21.014;2023-04-30T04:24:01;16.23;;;9.50;;
45254;SDS011;30989;52.078;21.014;2023-04-30T04:26:33;12.85;;;8.45;;
45254;SDS011;30989;52.078;21.014;2023-04-30T04:29:02;16.25;;;8.45;;
45254;SDS011;30989;52.078;21.014;2023-04-30T04:31:29;12.70;;;7.30;;
45254;SDS011;30989;52.078;21.014;2023-04-30T04:33:57;13.95;;;7.22;;
45254;SDS011;30989;52.078;21.014;2023-04-30T04:36:25;14.73;;;7.50;;
45254;SDS011;30989;52.078;21.014;2023-04-30T04:38:57;11.98;;;6.85;;
45254;SDS011;30989;52.078;21.014;2023-04-30T04:41:29;14.35;;;5.60;;
45254;SDS011;30989;52.078;21.014;2023-04-30T04:43:58;15.25;;;6.28;;
45254;SDS011;30989;52.078;21.014;2023-04-30T04:46:24;13.27;;;5.88;;
45254;SDS011;30989;52.078;21.014;2023-04-30T04:48:50;10.15;;;5.57;;
45254;SDS011;30989;52.078;21.014;2023-04-30T04:51:17;9.25;;;5.30;;
45254;SDS011;30989;52.078;21.014;2023-04-30T04:53:42;7.43;;;4.40;;
45254;SDS011;30989;52.078;21.014;2023-04-30T04:56:08;8.60;;;5.05;;
45254;SDS011;30989;52.078;21.014;2023-04-30T04:58:34;10.23;;;5.43;;
45254;SDS011;30989;52.078;21.014;2023-04-30T05:00:59;15.63;;;4.70;;
45254;SDS011;30989;52.078;21.014;2023-04-30T05:03:27;11.77;;;4.05;;
45254;SDS011;30989;52.078;21.014;2023-04-30T05:05:53;7.53;;;3.90;;
45254;SDS011;30989;52.078;21.014;2023-04-30T05:08:18;10.02;;;4.95;;
45254;SDS011;30989;52.078;21.014;2023-04-30T05:10:45;14.85;;;5.53;;
45254;SDS011;30989;52.078;21.014;2023-04-30T05:13:10;9.70;;;4.43;;
45254;SDS011;30989;52.078;21.014;2023-04-30T05:15:36;7.78;;;4.97;;
45254;SDS011;30989;52.078;21.014;2023-04-30T05:18:01;11.63;;;5.45;;
45254;SDS011;30989;52.078;21.014;2023-04-30T05:20:27;9.02;;;4.63;;
45254;SDS011;30989;52.078;21.014;2023-04-30T05:22:52;13.48;;;4.97;;
45254;SDS011;30989;52.078;21.014;2023-04-30T05:25:18;13.20;;;5.72;;
45254;SDS011;30989;52.078;21.014;2023-04-30T05:27:43;9.70;;;5.15;;
45254;SDS011;30989;52.078;21.014;2023-04-30T05:30:09;16.05;;;5.95;;
45254;SDS011;30989;52.078;21.014;2023-04-30T05:32:35;14.18;;;5.82;;
45254;SDS011;30989;52.078;21.014;2023-04-30T05:35:00;13.52;;;5.40;;
45254;SDS011;30989;52.078;21.014;2023-04-30T05:37:26;10.40;;;6.35;;
45254;SDS011;30989;52.078;21.014;2023-04-30T05:39:51;12.32;;;6.22;;
45254;SDS011;30989;52.078;21.014;2023-04-30T05:42:18;7.93;;;4.80;;
45254;SDS011;30989;52.078;21.014;2023-04-30T05:44:44;11.38;;;5.10;;
45254;SDS011;30989;52.078;21.014;2023-04-30T05:47:10;11.77;;;6.10;;
45254;SDS011;30989;52.078;21.014;2023-04-30T05:49:35;9.40;;;5.10;;
45254;SDS011;30989;52.078;21.014;2023-04-30T05:52:01;13.52;;;6.00;;
45254;SDS011;30989;52.078;21.014;2023-04-30T05:54:28;10.45;;;5.63;;
45254;SDS011;30989;52.078;21.014;2023-04-30T05:56:54;12.40;;;6.15;;
45254;SDS011;30989;52.078;21.014;2023-04-30T05:59:19;14.00;;;6.68;;
45254;SDS011;30989;52.078;21.014;2023-04-30T06:01:44;17.58;;;7.30;;
45254;SDS011;30989;52.078;21.014;2023-04-30T06:04:10;13.07;;;6.75;;
45254;SDS011;30989;52.078;21.014;2023-04-30T06:06:35;11.70;;;5.75;;
45254;SDS011;30989;52.078;21.014;2023-04-30T06:09:01;11.32;;;6.75;;
45254;SDS011;30989;52.078;21.014;2023-04-30T06:11:26;14.45;;;7.65;;
45254;SDS011;30989;52.078;21.014;2023-04-30T06:13:53;12.95;;;6.93;;
45254;SDS011;30989;52.078;21.014;2023-04-30T06:16:18;13.45;;;6.82;;
45254;SDS011;30989;52.078;21.014;2023-04-30T06:18:44;17.02;;;7.50;;
45254;SDS011;30989;52.078;21.014;2023-04-30T06:21:10;13.43;;;7.10;;
45254;SDS011;30989;52.078;21.014;2023-04-30T06:23:35;12.18;;;6.55;;
45254;SDS011;30989;52.078;21.014;2023-04-30T06:26:01;17.48;;;7.55;;
45254;SDS011;30989;52.078;21.014;2023-04-30T06:28:27;13.02;;;7.88;;
45254;SDS011;30989;52.078;21.014;2023-04-30T06:30:52;15.43;;;6.88;;
45254;SDS011;30989;52.078;21.014;2023-04-30T06:33:19;20.02;;;8.93;;
45254;SDS011;30989;52.078;21.014;2023-04-30T06:35:45;13.20;;;8.23;;
45254;SDS011;30989;52.078;21.014;2023-04-30T06:38:10;16.38;;;8.60;;
45254;SDS011;30989;52.078;21.014;2023-04-30T06:40:35;17.90;;;9.50;;
45254;SDS011;30989;52.078;21.014;2023-04-30T06:43:01;14.63;;;7.75;;
45254;SDS011;30989;52.078;21.014;2023-04-30T06:45:26;18.55;;;9.95;;
45254;SDS011;30989;52.078;21.014;2023-04-30T06:47:52;17.42;;;9.70;;
45254;SDS011;30989;52.078;21.014;2023-04-30T06:50:18;18.63;;;9.95;;
45254;SDS011;30989;52.078;21.014;2023-04-30T06:52:45;20.35;;;10.30;;
45254;SDS011;30989;52.078;21.014;2023-04-30T06:55:10;18.90;;;11.18;;
45254;SDS011;30989;52.078;21.014;2023-04-30T06:57:36;20.98;;;10.68;;
45254;SDS011;30989;52.078;21.014;2023-04-30T07:00:05;17.95;;;10.18;;
45254;SDS011;30989;52.078;21.014;2023-04-30T07:02:31;16.70;;;9.77;;
45254;SDS011;30989;52.078;21.014;2023-04-30T07:04:57;21.33;;;9.68;;
45254;SDS011;30989;52.078;21.014;2023-04-30T07:07:22;16.77;;;9.80;;
45254;SDS011;30989;52.078;21.014;2023-04-30T07:09:48;21.13;;;10.30;;
45254;SDS011;30989;52.078;21.014;2023-04-30T07:12:14;18.13;;;7.78;;
45254;SDS011;30989;52.078;21.014;2023-04-30T07:14:39;16.67;;;7.32;;
45254;SDS011;30989;52.078;21.014;2023-04-30T07:17:05;16.58;;;7.50;;
45254;SDS011;30989;52.078;21.014;2023-04-30T07:19:30;15.20;;;6.25;;
45254;SDS011;30989;52.078;21.014;2023-04-30T07:21:56;12.68;;;6.57;;
45254;SDS011;30989;52.078;21.014;2023-04-30T07:24:22;11.07;;;5.80;;
45254;SDS011;30989;52.078;21.014;2023-04-30T07:26:47;8.48;;;4.18;;
45254;SDS011;30989;52.078;21.014;2023-04-30T07:29:13;11.07;;;5.15;;
45254;SDS011;30989;52.078;21.014;2023-04-30T07:31:38;10.73;;;4.43;;
45254;SDS011;30989;52.078;21.014;2023-04-30T07:34:04;11.20;;;4.20;;
45254;SDS011;30989;52.078;21.014;2023-04-30T07:36:29;9.75;;;5.07;;
45254;SDS011;30989;52.078;21.014;2023-04-30T07:38:55;10.65;;;3.70;;
45254;SDS011;30989;52.078;21.014;2023-04-30T07:41:20;9.02;;;3.72;;
45254;SDS011;30989;52.078;21.014;2023-04-30T07:43:46;7.78;;;4.07;;
45254;SDS011;30989;52.078;21.014;2023-04-30T07:46:11;8.27;;;3.38;;
45254;SDS011;30989;52.078;21.014;2023-04-30T07:48:37;9.70;;;3.45;;
45254;SDS011;30989;52.078;21.014;2023-04-30T07:51:03;9.00;;;3.08;;
45254;SDS011;30989;52.078;21.014;2023-04-30T07:53:29;9.43;;;3.65;;
45254;SDS011;30989;52.078;21.014;2023-04-30T07:55:54;9.50;;;3.05;;
45254;SDS011;30989;52.078;21.014;2023-04-30T07:58:20;7.72;;;3.38;;
45254;SDS011;30989;52.078;21.014;2023-04-30T08:00:45;9.50;;;3.08;;
45254;SDS011;30989;52.078;21.014;2023-04-30T08:03:11;10.70;;;4.10;;
45254;SDS011;30989;52.078;21.014;2023-04-30T08:05:36;10.25;;;4.43;;
45254;SDS011;30989;52.078;21.014;2023-04-30T08:08:01;5.75;;;2.38;;
45254;SDS011;30989;52.078;21.014;2023-04-30T08:10:28;5.32;;;2.38;;
45254;SDS011;30989;52.078;21.014;2023-04-30T08:12:53;5.05;;;2.55;;
45254;SDS011;30989;52.078;21.014;2023-04-30T08:15:19;7.85;;;2.42;;
45254;SDS011;30989;52.078;21.014;2023-04-30T08:17:48;7.88;;;3.47;;
45254;SDS011;30989;52.078;21.014;2023-04-30T08:20:14;16.77;;;3.65;;
45254;SDS011;30989;52.078;21.014;2023-04-30T08:22:40;7.80;;;2.53;;
45254;SDS011;30989;52.078;21.014;2023-04-30T08:25:05;5.35;;;2.13;;
45254;SDS011;30989;52.078;21.014;2023-04-30T08:27:31;9.15;;;2.88;;
45254;SDS011;30989;52.078;21.014;2023-04-30T08:29:57;13.45;;;2.35;;
45254;SDS011;30989;52.078;21.014;2023-04-30T08:32:22;7.57;;;2.60;;
45254;SDS011;30989;52.078;21.014;2023-04-30T08:34:48;4.40;;;2.42;;
45254;SDS011;30989;52.078;21.014;2023-04-30T08:37:13;11.15;;;2.53;;
45254;SDS011;30989;52.078;21.014;2023-04-30T08:39:39;5.28;;;2.42;;
45254;SDS011;30989;52.078;21.014;2023-04-30T08:42:07;6.70;;;2.50;;
45254;SDS011;30989;52.078;21.014;2023-04-30T08:44:35;7.93;;;3.38;;
45254;SDS011;30989;52.078;21.014;2023-04-30T08:47:03;8.68;;;2.40;;
45254;SDS011;30989;52.078;21.014;2023-04-30T08:49:32;7.35;;;2.15;;
45254;SDS011;30989;52.078;21.014;2023-04-30T08:51:57;11.75;;;3.22;;
45254;SDS011;30989;52.078;21.014;2023-04-30T08:54:25;12.80;;;3.78;;
45254;SDS011;30989;52.078;21.014;2023-04-30T08:56:54;9.88;;;2.70;;
45254;SDS011;30989;52.078;21.014;2023-04-30T08:59:20;7.28;;;1.80;;
45254;SDS011;30989;52.078;21.014;2023-04-30T09:01:45;6.90;;;2.10;;
45254;SDS011;30989;52.078;21.014;2023-04-30T09:04:11;5.88;;;2.15;;
45254;SDS011;30989;52.078;21.014;2023-04-30T09:06:37;7.03;;;2.10;;
45254;SDS011;30989;52.078;21.014;2023-04-30T09:09:07;5.65;;;2.72;;
45254;SDS011;30989;52.078;21.014;2023-04-30T09:11:35;9.20;;;3.17;;
45254;SDS011;30989;52.078;21.014;2023-04-30T09:14:01;9.98;;;2.22;;
45254;SDS011;30989;52.078;21.014;2023-04-30T09:16:43;6.15;;;1.80;;
45254;SDS011;30989;52.078;21.014;2023-04-30T09:19:27;6.07;;;1.63;;
45254;SDS011;30989;52.078;21.014;2023-04-30T09:21:53;7.75;;;2.17;;
45254;SDS011;30989;52.078;21.014;2023-04-30T09:24:19;5.35;;;1.95;;
45254;SDS011;30989;52.078;21.014;2023-04-30T09:26:45;5.25;;;1.77;;
45254;SDS011;30989;52.078;21.014;2023-04-30T09:29:11;10.18;;;2.45;;
45254;SDS011;30989;52.078;21.014;2023-04-30T09:31:38;3.78;;;1.88;;
45254;SDS011;30989;52.078;21.014;2023-04-30T09:34:04;5.28;;;1.70;;
45254;SDS011;30989;52.078;21.014;2023-04-30T09:36:30;5.95;;;1.73;;
45254;SDS011;30989;52.078;21.014;2023-04-30T09:39:06;6.95;;;1.77;;
45254;SDS011;30989;52.078;21.014;2023-04-30T09:41:32;3.78;;;1.50;;
45254;SDS011;30989;52.078;21.014;2023-04-30T09:43:59;3.63;;;1.30;;
45254;SDS011;30989;52.078;21.014;2023-04-30T09:46:33;5.35;;;2.00;;
45254;SDS011;30989;52.078;21.014;2023-04-30T09:49:04;3.78;;;1.58;;
45254;SDS011;30989;52.078;21.014;2023-04-30T09:51:30;5.68;;;2.78;;
45254;SDS011;30989;52.078;21.014;2023-04-30T09:53:56;5.43;;;1.90;;
45254;SDS011;30989;52.078;21.014;2023-04-30T09:56:23;8.75;;;1.60;;
45254;SDS011;30989;52.078;21.014;2023-04-30T09:58:50;5.70;;;1.65;;
45254;SDS011;30989;52.078;21.014;2023-04-30T10:01:18;6.93;;;1.50;;
45254;SDS011;30989;52.078;21.014;2023-04-30T10:03:45;4.78;;;1.52;;
45254;SDS011;30989;52.078;21.014;2023-04-30T10:06:12;5.22;;;1.23;;
45254;SDS011;30989;52.078;21.014;2023-04-30T10:08:40;3.03;;;1.10;;
45254;SDS011;30989;52.078;21.014;2023-04-30T10:11:07;2.78;;;1.05;;
45254;SDS011;30989;52.078;21.014;2023-04-30T10:13:41;5.60;;;1.35;;
45254;SDS011;30989;52.078;21.014;2023-04-30T10:16:14;6.65;;;1.67;;
45254;SDS011;30989;52.078;21.014;2023-04-30T10:18:49;7.00;;;1.30;;
45254;SDS011;30989;52.078;21.014;2023-04-30T10:21:16;4.65;;;1.48;;
45254;SDS011;30989;52.078;21.014;2023-04-30T10:23:44;4.50;;;1.67;;
45254;SDS011;30989;52.078;21.014;2023-04-30T10:26:10;5.93;;;1.50;;
45254;SDS011;30989;52.078;21.014;2023-04-30T10:28:36;12.27;;;1.60;;
45254;SDS011;30989;52.078;21.014;2023-04-30T10:31:02;3.38;;;1.40;;
45254;SDS011;30989;52.078;21.014;2023-04-30T10:36:59;2.47;;;1.10;;
45254;SDS011;30989;52.078;21.014;2023-04-30T10:39:13;4.32;;;1.30;;
45254;SDS011;30989;52.078;21.014;2023-04-30T10:41:45;7.30;;;1.92;;
45254;SDS011;30989;52.078;21.014;2023-04-30T10:44:12;4.20;;;1.30;;
45254;SDS011;30989;52.078;21.014;2023-04-30T10:46:39;6.15;;;2.13;;
45254;SDS011;30989;52.078;21.014;2023-04-30T10:49:05;4.03;;;1.58;;
45254;SDS011;30989;52.078;21.014;2023-04-30T10:52:04;3.90;;;1.20;;
45254;SDS011;30989;52.078;21.014;2023-04-30T10:54:31;4.00;;;1.40;;
45254;SDS011;30989;52.078;21.014;2023-04-30T10:57:11;5.20;;;2.43;;
45254;SDS011;30989;52.078;21.014;2023-04-30T10:59:41;6.63;;;1.50;;
45254;SDS011;30989;52.078;21.014;2023-04-30T11:02:11;4.68;;;1.30;;
45254;SDS011;30989;52.078;21.014;2023-04-30T11:07:35;5.88;;;1.50;;
45254;SDS011;30989;52.078;21.014;2023-04-30T11:10:01;4.88;;;1.35;;
45254;SDS011;30989;52.078;21.014;2023-04-30T11:12:27;3.15;;;1.23;;
45254;SDS011;30989;52.078;21.014;2023-04-30T11:15:01;5.10;;;1.17;;
45254;SDS011;30989;52.078;21.014;2023-04-30T11:17:31;3.55;;;0.70;;
45254;SDS011;30989;52.078;21.014;2023-04-30T11:20:00;4.47;;;1.10;;
45254;SDS011;30989;52.078;21.014;2023-04-30T11:22:26;9.50;;;3.28;;
45254;SDS011;30989;52.078;21.014;2023-04-30T11:25:07;3.08;;;1.35;;
45254;SDS011;30989;52.078;21.014;2023-04-30T11:27:34;4.05;;;1.25;;
45254;SDS011;30989;52.078;21.014;2023-04-30T11:30:02;4.65;;;1.17;;
45254;SDS011;30989;52.078;21.014;2023-04-30T11:32:34;5.00;;;1.30;;
45254;SDS011;30989;52.078;21.014;2023-04-30T11:35:01;4.40;;;1.33;;
45254;SDS011;30989;52.078;21.014;2023-04-30T11:37:31;4.20;;;1.23;;
45254;SDS011;30989;52.078;21.014;2023-04-30T11:39:59;3.80;;;1.23;;
45254;SDS011;30989;52.078;21.014;2023-04-30T11:42:30;4.38;;;1.13;;
45254;SDS011;30989;52.078;21.014;2023-04-30T11:45:02;5.03;;;1.20;;
45254;SDS011;30989;52.078;21.014;2023-04-30T11:47:37;6.45;;;1.40;;
45254;SDS011;30989;52.078;21.014;2023-04-30T11:50:07;4.22;;;1.35;;
45254;SDS011;30989;52.078;21.014;2023-04-30T11:52:36;4.03;;;1.25;;
45254;SDS011;30989;52.078;21.014;2023-04-30T11:55:21;4.07;;;1.60;;
45254;SDS011;30989;52.078;21.014;2023-04-30T11:57:50;4.30;;;1.48;;
45254;SDS011;30989;52.078;21.014;2023-04-30T12:00:19;4.55;;;1.65;;
45254;SDS011;30989;52.078;21.014;2023-04-30T12:02:46;7.18;;;1.50;;
45254;SDS011;30989;52.078;21.014;2023-04-30T12:05:16;3.10;;;1.25;;
45254;SDS011;30989;52.078;21.014;2023-04-30T12:07:50;6.10;;;2.60;;
45254;SDS011;30989;52.078;21.014;2023-04-30T12:10:19;4.03;;;1.67;;
45254;SDS011;30989;52.078;21.014;2023-04-30T12:12:45;3.88;;;1.38;;
45254;SDS011;30989;52.078;21.014;2023-04-30T12:15:12;3.85;;;1.05;;
45254;SDS011;30989;52.078;21.014;2023-04-30T12:17:40;4.03;;;1.38;;
45254;SDS011;30989;52.078;21.014;2023-04-30T12:20:06;3.15;;;1.27;;
45254;SDS011;30989;52.078;21.014;2023-04-30T12:22:33;2.55;;;1.08;;
45254;SDS011;30989;52.078;21.014;2023-04-30T12:25:00;4.55;;;1.80;;
45254;SDS011;30989;52.078;21.014;2023-04-30T12:27:41;4.22;;;1.10;;
45254;SDS011;30989;52.078;21.014;2023-04-30T12:30:09;3.30;;;1.30;;
45254;SDS011;30989;52.078;21.014;2023-04-30T12:32:41;3.63;;;1.17;;
45254;SDS011;30989;52.078;21.014;2023-04-30T12:35:12;4.28;;;1.35;;
45254;SDS011;30989;52.078;21.014;2023-04-30T12:37:42;3.03;;;0.90;;
45254;SDS011;30989;52.078;21.014;2023-04-30T12:40:08;5.88;;;1.38;;
45254;SDS011;30989;52.078;21.014;2023-04-30T12:42:34;3.30;;;1.33;;
45254;SDS011;30989;52.078;21.014;2023-04-30T12:45:00;3.78;;;1.42;;
45254;SDS011;30989;52.078;21.014;2023-04-30T12:47:25;3.85;;;1.27;;
45254;SDS011;30989;52.078;21.014;2023-04-30T12:49:51;5.55;;;1.45;;
45254;SDS011;30989;52.078;21.014;2023-04-30T12:52:17;6.25;;;1.60;;
45254;SDS011;30989;52.078;21.014;2023-04-30T12:54:49;3.83;;;1.33;;
45254;SDS011;30989;52.078;21.014;2023-04-30T12:57:14;3.97;;;1.20;;
45254;SDS011;30989;52.078;21.014;2023-04-30T13:02:18;4.05;;;0.90;;
45254;SDS011;30989;52.078;21.014;2023-04-30T13:04:48;3.60;;;1.27;;
45254;SDS011;30989;52.078;21.014;2023-04-30T13:07:14;2.78;;;1.20;;
45254;SDS011;30989;52.078;21.014;2023-04-30T13:09:39;3.88;;;1.40;;
45254;SDS011;30989;52.078;21.014;2023-04-30T13:12:05;5.55;;;1.30;;
45254;SDS011;30989;52.078;21.014;2023-04-30T13:14:31;3.80;;;1.00;;
45254;SDS011;30989;52.078;21.014;2023-04-30T13:16:57;2.13;;;1.17;;
45254;SDS011;30989;52.078;21.014;2023-04-30T13:19:23;3.28;;;1.05;;
45254;SDS011;30989;52.078;21.014;2023-04-30T13:21:48;3.00;;;1.00;;
45254;SDS011;30989;52.078;21.014;2023-04-30T13:24:14;5.15;;;2.15;;
45254;SDS011;30989;52.078;21.014;2023-04-30T13:26:40;5.85;;;1.52;;
45254;SDS011;30989;52.078;21.014;2023-04-30T13:29:05;3.10;;;1.25;;
45254;SDS011;30989;52.078;21.014;2023-04-30T13:31:31;4.30;;;1.42;;
45254;SDS011;30989;52.078;21.014;2023-04-30T13:33:57;3.65;;;1.20;;
45254;SDS011;30989;52.078;21.014;2023-04-30T13:36:22;4.90;;;1.45;;
45254;SDS011;30989;52.078;21.014;2023-04-30T13:38:48;7.40;;;1.27;;
45254;SDS011;30989;52.078;21.014;2023-04-30T13:41:13;6.00;;;1.10;;
45254;SDS011;30989;52.078;21.014;2023-04-30T13:43:38;4.65;;;1.13;;
45254;SDS011;30989;52.078;21.014;2023-04-30T13:46:06;5.00;;;1.30;;
45254;SDS011;30989;52.078;21.014;2023-04-30T13:48:32;4.00;;;0.90;;
45254;SDS011;30989;52.078;21.014;2023-04-30T13:50:58;2.60;;;1.08;;
45254;SDS011;30989;52.078;21.014;2023-04-30T13:53:24;6.70;;;1.77;;
45254;SDS011;30989;52.078;21.014;2023-04-30T13:55:50;10.63;;;1.48;;
45254;SDS011;30989;52.078;21.014;2023-04-30T13:58:15;5.22;;;1.42;;
45254;SDS011;30989;52.078;21.014;2023-04-30T14:00:41;5.32;;;1.20;;
45254;SDS011;30989;52.078;21.014;2023-04-30T14:03:06;2.67;;;1.20;;
45254;SDS011;30989;52.078;21.014;2023-04-30T14:05:32;1.92;;;1.00;;
45254;SDS011;30989;52.078;21.014;2023-04-30T14:07:57;3.13;;;1.08;;
45254;SDS011;30989;52.078;21.014;2023-04-30T14:10:23;2.90;;;0.98;;
45254;SDS011;30989;52.078;21.014;2023-04-30T14:12:48;3.90;;;1.17;;
45254;SDS011;30989;52.078;21.014;2023-04-30T14:15:14;3.33;;;1.40;;
45254;SDS011;30989;52.078;21.014;2023-04-30T14:17:40;3.95;;;1.10;;
45254;SDS011;30989;52.078;21.014;2023-04-30T14:20:05;2.55;;;0.65;;
45254;SDS011;30989;52.078;21.014;2023-04-30T14:22:32;2.67;;;1.10;;
45254;SDS011;30989;52.078;21.014;2023-04-30T14:24:59;3.65;;;1.00;;
45254;SDS011;30989;52.078;21.014;2023-04-30T14:27:25;2.70;;;1.02;;
45254;SDS011;30989;52.078;21.014;2023-04-30T14:29:51;2.60;;;0.80;;
45254;SDS011;30989;52.078;21.014;2023-04-30T14:32:16;3.70;;;1.00;;
45254;SDS011;30989;52.078;21.014;2023-04-30T14:34:41;4.60;;;1.15;;
45254;SDS011;30989;52.078;21.014;2023-04-30T14:37:07;3.38;;;1.15;;
45254;SDS011;30989;52.078;21.014;2023-04-30T14:39:33;4.40;;;1.00;;
45254;SDS011;30989;52.078;21.014;2023-04-30T14:41:58;4.85;;;1.27;;
45254;SDS011;30989;52.078;21.014;2023-04-30T14:44:25;2.97;;;1.02;;
45254;SDS011;30989;52.078;21.014;2023-04-30T14:46:51;3.22;;;0.88;;
45254;SDS011;30989;52.078;21.014;2023-04-30T14:49:17;2.50;;;0.90;;
45254;SDS011;30989;52.078;21.014;2023-04-30T14:51:42;6.03;;;2.55;;
45254;SDS011;30989;52.078;21.014;2023-04-30T14:54:08;9.00;;;3.10;;
45254;SDS011;30989;52.078;21.014;2023-04-30T14:56:33;4.53;;;1.70;;